createdAt,value
2023-01-17T00:00:17.523Z,25.93
2023-01-17T00:01:57.291Z,25.93
2023-01-17T00:03:37.093Z,25.92
2023-01-17T00:05:16.842Z,25.92
2023-01-17T00:06:56.624Z,25.92
2023-01-17T00:08:36.444Z,25.92
2023-01-17T00:10:16.131Z,25.92
2023-01-17T00:11:55.929Z,25.92
2023-01-17T00:13:35.725Z,25.92
2023-01-17T00:15:15.456Z,25.91
2023-01-17T00:16:55.211Z,25.92
2023-01-17T00:18:35.028Z,25.92
2023-01-17T00:20:14.737Z,25.92
2023-01-17T00:21:54.497Z,25.91
2023-01-17T00:23:34.289Z,25.91
2023-01-17T00:25:14.065Z,25.91
2023-01-17T00:26:53.780Z,25.91
2023-01-17T00:28:33.568Z,25.91
2023-01-17T00:30:13.326Z,25.91
2023-01-17T00:31:53.122Z,25.91
2023-01-17T00:33:32.894Z,25.91
2023-01-17T00:35:12.640Z,25.91
2023-01-17T00:36:52.397Z,25.91
2023-01-17T00:38:32.236Z,25.9
2023-01-17T00:40:11.936Z,25.89
2023-01-17T00:41:51.696Z,25.9
2023-01-17T00:43:31.491Z,25.9
2023-01-17T00:45:11.250Z,25.9
2023-01-17T00:46:50.994Z,25.9
2023-01-17T00:48:30.797Z,25.9
2023-01-17T00:50:10.561Z,25.89
2023-01-17T00:51:50.292Z,25.9
2023-01-17T00:53:30.073Z,25.9
2023-01-17T00:55:09.934Z,25.89
2023-01-17T00:56:49.620Z,25.89
2023-01-17T00:58:29.395Z,25.89
2023-01-17T01:00:09.167Z,25.89
2023-01-17T01:01:48.905Z,25.89
2023-01-17T01:03:28.672Z,25.89
2023-01-17T01:05:08.450Z,25.84
2023-01-17T01:06:48.213Z,25.89
2023-01-17T01:08:27.963Z,25.89
2023-01-17T01:10:07.751Z,25.89
2023-01-17T01:11:47.534Z,25.88
2023-01-17T01:13:27.279Z,25.88
2023-01-17T01:15:07.092Z,25.88
2023-01-17T01:16:46.806Z,25.88
2023-01-17T01:18:26.584Z,25.88
2023-01-17T01:20:06.346Z,25.88
2023-01-17T01:21:46.107Z,25.88
2023-01-17T01:23:25.885Z,25.88
2023-01-17T01:25:05.693Z,25.88
2023-01-17T01:26:45.422Z,25.87
2023-01-17T01:28:25.188Z,25.87
2023-01-17T01:30:04.954Z,25.81
2023-01-17T01:31:44.716Z,25.87
2023-01-17T01:33:24.566Z,25.87
2023-01-17T01:35:04.659Z,25.87
2023-01-17T01:36:44.021Z,25.87
2023-01-17T01:38:23.794Z,25.86
2023-01-17T01:40:03.535Z,25.87
2023-01-17T01:41:43.386Z,25.87
2023-01-17T01:43:23.085Z,25.86
2023-01-17T01:45:02.931Z,25.87
2023-01-17T01:46:42.677Z,25.87
2023-01-17T01:48:22.403Z,25.86
2023-01-17T01:50:02.154Z,25.86
2023-01-17T01:51:41.958Z,25.86
2023-01-17T01:53:21.710Z,25.86
2023-01-17T01:55:01.448Z,25.72
2023-01-17T01:56:41.231Z,25.86
2023-01-17T01:58:20.991Z,25.86
2023-01-17T02:00:00.754Z,25.86
2023-01-17T02:01:40.519Z,25.85
2023-01-17T02:03:20.297Z,25.85
2023-01-17T02:05:00.092Z,25.85
2023-01-17T02:06:39.815Z,25.85
2023-01-17T02:08:19.668Z,25.84
2023-01-17T02:09:59.394Z,25.84
2023-01-17T02:11:39.139Z,25.84
2023-01-17T02:13:18.890Z,25.84
2023-01-17T02:14:58.676Z,25.84
2023-01-17T02:16:38.437Z,25.84
2023-01-17T02:18:18.200Z,25.83
2023-01-17T02:19:57.975Z,25.72
2023-01-17T02:21:37.748Z,25.84
2023-01-17T02:23:17.504Z,25.84
2023-01-17T02:24:57.289Z,25.84
2023-01-17T02:26:37.048Z,25.83
2023-01-17T02:28:16.827Z,25.83
2023-01-17T02:29:56.563Z,25.83
2023-01-17T02:31:36.331Z,25.83
2023-01-17T02:33:16.104Z,25.83
2023-01-17T02:34:55.875Z,25.83
2023-01-17T02:36:35.646Z,25.83
2023-01-17T02:38:15.430Z,25.83
2023-01-17T02:39:55.161Z,25.83
2023-01-17T02:41:35.056Z,25.83
2023-01-17T02:43:14.712Z,25.82
2023-01-17T02:44:54.496Z,25.82
2023-01-17T02:46:34.246Z,25.82
2023-01-17T02:48:14.070Z,25.82
2023-01-17T02:49:53.831Z,25.82
2023-01-17T02:51:33.551Z,25.81
2023-01-17T02:53:13.325Z,25.81
2023-01-17T02:54:53.082Z,25.81
2023-01-17T02:56:32.859Z,25.82
2023-01-17T02:58:12.771Z,25.81
2023-01-17T02:59:52.384Z,25.81
2023-01-17T03:01:32.164Z,25.81
2023-01-17T03:03:11.940Z,25.81
2023-01-17T03:04:51.673Z,25.81
2023-01-17T03:06:31.489Z,25.8
2023-01-17T03:08:11.246Z,25.8
2023-01-17T03:09:50.991Z,25.8
2023-01-17T03:11:30.759Z,25.81
2023-01-17T03:13:10.524Z,25.8
2023-01-17T03:14:50.286Z,25.8
2023-01-17T03:16:30.077Z,25.8
2023-01-17T03:18:09.841Z,25.8
2023-01-17T03:19:49.592Z,25.8
2023-01-17T03:21:29.409Z,25.8
2023-01-17T03:23:09.132Z,25.79
2023-01-17T03:24:48.880Z,25.79
2023-01-17T03:26:28.687Z,25.79
2023-01-17T03:28:08.479Z,25.79
2023-01-17T03:29:48.202Z,25.79
2023-01-17T03:31:28.037Z,25.79
2023-01-17T03:33:07.733Z,25.78
2023-01-17T03:34:47.498Z,25.79
2023-01-17T03:36:27.255Z,25.79
2023-01-17T03:38:07.030Z,25.78
2023-01-17T03:39:46.792Z,25.78
2023-01-17T03:41:26.588Z,25.78
2023-01-17T03:43:06.338Z,25.78
2023-01-17T03:44:46.090Z,25.78
2023-01-17T03:46:25.866Z,25.78
2023-01-17T03:48:05.618Z,25.77
2023-01-17T03:49:45.387Z,25.77
2023-01-17T03:51:25.167Z,25.77
2023-01-17T03:53:04.926Z,25.78
2023-01-17T03:54:44.710Z,25.77
2023-01-17T03:56:24.453Z,25.77
2023-01-17T03:58:04.214Z,25.69
2023-01-17T03:59:43.981Z,25.76
2023-01-17T04:01:23.751Z,25.77
2023-01-17T04:03:03.508Z,25.77
2023-01-17T04:04:43.276Z,25.77
2023-01-17T04:06:23.038Z,25.76
2023-01-17T04:08:02.791Z,25.76
2023-01-17T04:09:42.578Z,25.76
2023-01-17T04:11:22.331Z,25.76
2023-01-17T04:13:02.098Z,25.76
2023-01-17T04:14:41.847Z,25.76
2023-01-17T04:16:21.619Z,25.76
2023-01-17T04:18:01.393Z,25.75
2023-01-17T04:19:41.162Z,25.75
2023-01-17T04:21:20.907Z,25.74
2023-01-17T04:23:00.673Z,25.75
2023-01-17T04:24:40.446Z,25.75
2023-01-17T04:26:20.202Z,25.75
2023-01-17T04:27:59.978Z,25.75
2023-01-17T04:29:39.857Z,25.74
2023-01-17T04:31:19.661Z,25.74
2023-01-17T04:32:59.280Z,25.74
2023-01-17T04:34:39.088Z,25.74
2023-01-17T04:36:18.848Z,25.74
2023-01-17T04:37:58.579Z,25.74
2023-01-17T04:39:38.342Z,25.74
2023-01-17T04:41:18.118Z,25.74
2023-01-17T04:42:57.892Z,25.74
2023-01-17T04:44:37.654Z,25.74
2023-01-17T04:46:17.419Z,25.65
2023-01-17T04:47:57.177Z,25.73
2023-01-17T04:49:36.971Z,25.74
2023-01-17T04:51:16.715Z,25.73
2023-01-17T04:52:56.491Z,25.73
2023-01-17T04:54:36.241Z,25.73
2023-01-17T04:56:16.014Z,25.73
2023-01-17T04:57:55.788Z,25.73
2023-01-17T04:59:35.554Z,25.73
2023-01-17T05:01:15.318Z,25.73
2023-01-17T05:02:55.091Z,25.73
2023-01-17T05:04:34.851Z,25.73
2023-01-17T05:06:14.640Z,25.72
2023-01-17T05:07:54.375Z,25.72
2023-01-17T05:09:34.140Z,25.72
2023-01-17T05:11:13.892Z,25.72
2023-01-17T05:12:53.675Z,25.72
2023-01-17T05:14:33.462Z,25.72
2023-01-17T05:16:13.210Z,25.72
2023-01-17T05:17:52.988Z,25.71
2023-01-17T05:19:32.772Z,25.71
2023-01-17T05:21:12.507Z,25.72
2023-01-17T05:22:52.266Z,25.71
2023-01-17T05:24:32.052Z,25.72
2023-01-17T05:26:11.796Z,25.71
2023-01-17T05:27:51.583Z,25.72
2023-01-17T05:29:31.367Z,25.71
2023-01-17T05:31:11.118Z,25.71
2023-01-17T05:32:50.869Z,25.71
2023-01-17T05:34:30.651Z,25.7
2023-01-17T05:36:10.418Z,25.71
2023-01-17T05:37:50.180Z,25.71
2023-01-17T05:39:29.941Z,25.71
2023-01-17T05:41:09.719Z,25.71
2023-01-17T05:42:49.476Z,25.7
2023-01-17T05:44:29.260Z,25.71
2023-01-17T05:46:09.016Z,25.71
2023-01-17T05:47:48.780Z,25.7
2023-01-17T05:49:28.549Z,25.7
2023-01-17T05:51:08.308Z,25.7
2023-01-17T05:52:48.083Z,25.7
2023-01-17T05:54:27.864Z,25.7
2023-01-17T05:56:07.612Z,25.7
2023-01-17T05:57:47.388Z,25.69
2023-01-17T05:59:27.154Z,25.69
2023-01-17T06:01:06.974Z,25.7
2023-01-17T06:02:46.687Z,25.69
2023-01-17T06:04:26.489Z,25.7
2023-01-17T06:06:06.229Z,25.69
2023-01-17T06:07:46.002Z,25.69
2023-01-17T06:09:25.756Z,25.69
2023-01-17T06:11:05.532Z,25.69
2023-01-17T06:12:45.306Z,25.69
2023-01-17T06:14:25.067Z,25.69
2023-01-17T06:16:04.821Z,25.69
2023-01-17T06:17:44.595Z,25.69
2023-01-17T06:19:24.344Z,25.68
2023-01-17T06:21:04.127Z,25.69
2023-01-17T06:22:43.896Z,25.68
2023-01-17T06:24:23.654Z,25.66
2023-01-17T06:26:03.422Z,25.69
2023-01-17T06:27:43.180Z,25.68
2023-01-17T06:29:22.972Z,25.69
2023-01-17T06:31:02.718Z,25.68
2023-01-17T06:32:42.492Z,25.69
2023-01-17T06:34:22.278Z,25.68
2023-01-17T06:36:02.023Z,25.69
2023-01-17T06:37:41.783Z,25.69
2023-01-17T06:39:21.578Z,25.69
2023-01-17T06:41:01.437Z,25.68
2023-01-17T06:42:41.092Z,25.68
2023-01-17T06:44:20.861Z,25.68
2023-01-17T06:46:00.642Z,25.68
2023-01-17T06:47:40.382Z,25.68
2023-01-17T06:49:20.147Z,25.63
2023-01-17T06:50:59.946Z,25.68
2023-01-17T06:52:39.697Z,25.67
2023-01-17T06:54:19.452Z,25.66
2023-01-17T06:55:59.242Z,25.66
2023-01-17T06:57:38.976Z,25.66
2023-01-17T06:59:18.768Z,25.65
2023-01-17T07:00:58.533Z,25.65
2023-01-17T07:02:38.292Z,25.64
2023-01-17T07:04:18.085Z,25.65
2023-01-17T07:05:57.833Z,25.65
2023-01-17T07:07:37.596Z,25.64
2023-01-17T07:09:17.350Z,25.64
2023-01-17T07:10:57.124Z,25.64
2023-01-17T07:12:36.880Z,25.64
2023-01-17T07:14:16.660Z,25.64
2023-01-17T07:15:56.420Z,25.65
2023-01-17T07:17:36.190Z,25.65
2023-01-17T07:19:15.944Z,25.66
2023-01-17T07:20:55.769Z,25.65
2023-01-17T07:22:35.513Z,25.67
2023-01-17T07:24:15.248Z,25.66
2023-01-17T07:25:55.030Z,25.66
2023-01-17T07:27:34.790Z,25.68
2023-01-17T07:29:14.562Z,25.68
2023-01-17T07:30:54.383Z,25.69
2023-01-17T07:32:34.070Z,25.71
2023-01-17T07:34:13.930Z,25.72
2023-01-17T07:35:53.591Z,25.71
2023-01-17T07:37:33.348Z,25.61
2023-01-17T07:39:13.119Z,25.73
2023-01-17T07:40:52.885Z,25.74
2023-01-17T07:42:32.660Z,25.75
2023-01-17T07:44:12.419Z,25.77
2023-01-17T07:45:52.298Z,25.79
2023-01-17T07:47:31.979Z,25.81
2023-01-17T07:49:11.804Z,25.79
2023-01-17T07:50:51.503Z,25.82
2023-01-17T07:52:31.332Z,25.91
2023-01-17T07:54:11.061Z,25.88
2023-01-17T07:55:50.810Z,25.9
2023-01-17T07:57:30.656Z,25.93
2023-01-17T07:59:10.344Z,25.98
2023-01-17T08:00:50.105Z,26.03
2023-01-17T08:02:29.917Z,26.07
2023-01-17T08:04:09.730Z,26.16
2023-01-17T08:05:49.498Z,26.24
2023-01-17T08:07:29.362Z,26.3
2023-01-17T08:09:08.957Z,26.36
2023-01-17T08:10:48.740Z,26.44
2023-01-17T08:12:28.548Z,26.57
2023-01-17T08:14:08.307Z,26.69
2023-01-17T08:15:48.042Z,26.74
2023-01-17T08:17:27.904Z,26.77
2023-01-17T08:19:07.654Z,26.87
2023-01-17T08:20:47.352Z,26.88
2023-01-17T08:22:27.169Z,26.92
2023-01-17T08:24:06.946Z,26.98
2023-01-17T08:25:46.729Z,27.05
2023-01-17T08:27:26.515Z,27.14
2023-01-17T08:29:06.216Z,27.16
2023-01-17T08:30:46.043Z,27.28
2023-01-17T08:32:25.807Z,27.32
2023-01-17T08:34:05.518Z,27.38
2023-01-17T08:35:45.279Z,27.46
2023-01-17T08:37:25.137Z,27.5
2023-01-17T08:39:04.854Z,27.53
2023-01-17T08:40:44.596Z,27.56
2023-01-17T08:42:24.399Z,27.59
2023-01-17T08:44:04.218Z,27.62
2023-01-17T08:45:43.905Z,27.57
2023-01-17T08:47:23.671Z,27.51
2023-01-17T08:49:03.474Z,27.48
2023-01-17T08:50:43.205Z,27.5
2023-01-17T08:52:23.109Z,27.49
2023-01-17T08:54:02.746Z,27.69
2023-01-17T08:55:42.534Z,27.56
2023-01-17T08:57:22.372Z,27.53
2023-01-17T08:59:02.184Z,27.56
2023-01-17T09:00:41.843Z,27.51
2023-01-17T09:02:21.631Z,27.51
2023-01-17T09:04:01.383Z,27.53
2023-01-17T09:05:41.172Z,27.54
2023-01-17T09:07:20.971Z,27.58
2023-01-17T09:09:00.685Z,27.68
2023-01-17T09:10:40.457Z,27.66
2023-01-17T09:12:20.224Z,27.64
2023-01-17T09:14:00.102Z,27.76
2023-01-17T09:15:39.761Z,27.89
2023-01-17T09:17:19.540Z,28
2023-01-17T09:18:59.313Z,27.98
2023-01-17T09:20:39.129Z,27.72
2023-01-17T09:22:18.852Z,27.8
2023-01-17T09:23:58.613Z,27.89
2023-01-17T09:25:38.387Z,27.88
2023-01-17T09:27:18.148Z,27.92
2023-01-17T09:28:58.008Z,27.92
2023-01-17T09:30:37.694Z,27.95
2023-01-17T09:32:17.468Z,27.89
2023-01-17T09:33:57.234Z,27.91
2023-01-17T09:35:37.018Z,28.03
2023-01-17T09:37:16.783Z,28.1
2023-01-17T09:38:56.561Z,28.46
2023-01-17T09:40:36.345Z,28.36
2023-01-17T09:42:16.129Z,28.37
2023-01-17T09:43:55.854Z,28.34
2023-01-17T09:45:35.656Z,28.12
2023-01-17T09:47:15.415Z,28.04
2023-01-17T09:48:55.160Z,28.08
2023-01-17T09:50:34.965Z,28.05
2023-01-17T09:52:14.713Z,28.07
2023-01-17T09:53:54.510Z,28.81
2023-01-17T09:55:34.370Z,29.64
2023-01-17T09:57:14.041Z,28.68
2023-01-17T09:58:53.823Z,28.22
2023-01-17T10:00:33.646Z,28.1
2023-01-17T10:02:13.322Z,28.03
2023-01-17T10:03:53.096Z,27.98
2023-01-17T10:05:32.864Z,27.97
2023-01-17T10:07:12.631Z,28.03
2023-01-17T10:08:52.413Z,27.96
2023-01-17T10:10:32.199Z,27.94
2023-01-17T10:12:12.020Z,28.09
2023-01-17T10:13:51.789Z,28.28
2023-01-17T10:15:31.617Z,28.42
2023-01-17T10:17:11.464Z,28.22
2023-01-17T10:18:51.050Z,28.14
2023-01-17T10:20:30.913Z,28.14
2023-01-17T10:22:10.577Z,28.22
2023-01-17T10:23:50.352Z,28.08
2023-01-17T10:25:30.199Z,27.96
2023-01-17T10:27:10.097Z,27.97
2023-01-17T10:28:49.841Z,27.96
2023-01-17T10:30:29.635Z,27.89
2023-01-17T10:32:09.365Z,27.87
2023-01-17T10:33:49.083Z,27.84
2023-01-17T10:35:28.862Z,27.83
2023-01-17T10:37:08.496Z,27.77
2023-01-17T10:38:48.410Z,27.67
2023-01-17T10:40:28.186Z,27.8
2023-01-17T10:42:07.909Z,27.86
2023-01-17T10:43:47.716Z,27.87
2023-01-17T10:45:27.472Z,27.93
2023-01-17T10:47:07.269Z,27.91
2023-01-17T10:48:47.015Z,27.93
2023-01-17T10:50:26.737Z,27.89
2023-01-17T10:52:06.557Z,27.88
2023-01-17T10:53:46.231Z,27.78
2023-01-17T10:55:26.070Z,27.73
2023-01-17T10:57:05.845Z,27.7
2023-01-17T10:58:45.661Z,27.71
2023-01-17T11:00:25.305Z,27.77
2023-01-17T11:02:05.084Z,28.6
2023-01-17T11:03:44.839Z,28.1
2023-01-17T11:05:24.691Z,28.03
2023-01-17T11:07:04.374Z,28.13
2023-01-17T11:08:44.135Z,28.82
2023-01-17T11:10:23.917Z,28.33
2023-01-17T11:12:03.805Z,27.9
2023-01-17T11:13:43.546Z,27.89
2023-01-17T11:15:23.225Z,27.85
2023-01-17T11:17:03.110Z,27.82
2023-01-17T11:18:42.849Z,27.8
2023-01-17T11:20:22.694Z,27.85
2023-01-17T11:22:02.292Z,27.98
2023-01-17T11:23:42.197Z,28.27
2023-01-17T11:25:21.851Z,28.1
2023-01-17T11:27:01.628Z,28.11
2023-01-17T11:28:41.914Z,28.57
2023-01-17T11:30:21.158Z,29.28
2023-01-17T11:32:00.989Z,28.44
2023-01-17T11:33:40.777Z,29.56
2023-01-17T11:35:20.466Z,29.56
2023-01-17T11:37:00.236Z,29.54
2023-01-17T11:38:39.988Z,29.53
2023-01-17T11:40:19.769Z,29.54
2023-01-17T11:41:59.602Z,29.54
2023-01-17T11:43:39.310Z,29.54
2023-01-17T11:45:19.086Z,29.54
2023-01-17T11:46:58.867Z,29.54
2023-01-17T11:48:38.627Z,29.52
2023-01-17T11:50:18.381Z,29.52
2023-01-17T11:51:58.172Z,29.52
2023-01-17T11:53:37.932Z,29.53
2023-01-17T11:55:17.705Z,29.53
2023-01-17T11:56:57.476Z,29.53
2023-01-17T11:58:37.229Z,29.52
2023-01-17T12:00:17.076Z,29.51
2023-01-17T12:01:56.786Z,29.53
2023-01-17T12:03:36.552Z,29.53
2023-01-17T12:05:16.385Z,29.52
2023-01-17T12:06:56.097Z,29.52
2023-01-17T12:08:35.969Z,29.52
2023-01-17T12:10:15.653Z,29.51
2023-01-17T12:11:55.401Z,29.52
2023-01-17T12:13:35.173Z,29.51
2023-01-17T12:15:14.981Z,29.52
2023-01-17T12:16:54.799Z,29.52
2023-01-17T12:18:34.483Z,29.51
2023-01-17T12:20:14.368Z,29.52
2023-01-17T12:21:54.020Z,29.43
2023-01-17T12:23:33.985Z,29.51
2023-01-17T12:25:13.687Z,29.53
2023-01-17T12:26:53.323Z,29.52
2023-01-17T12:28:33.534Z,29.52
2023-01-17T12:30:12.997Z,29.51
2023-01-17T12:31:52.800Z,29.52
2023-01-17T12:33:32.618Z,29.5
2023-01-17T12:35:12.390Z,29.51
2023-01-17T12:36:52.222Z,29.45
2023-01-17T12:38:31.999Z,29.52
2023-01-17T12:40:11.500Z,29.52
2023-01-17T12:41:51.449Z,29.5
2023-01-17T12:43:31.226Z,29.52
2023-01-17T12:45:10.920Z,29.5
2023-01-17T12:46:50.580Z,29.5
2023-01-17T12:48:30.466Z,29.49
2023-01-17T12:50:10.188Z,29.52
2023-01-17T12:51:49.883Z,29.52
2023-01-17T12:53:29.708Z,29.51
2023-01-17T12:55:09.456Z,29.52
2023-01-17T12:56:49.222Z,29.51
2023-01-17T12:58:28.983Z,29.51
2023-01-17T13:00:08.894Z,29.52
2023-01-17T13:01:48.512Z,29.51
2023-01-17T13:03:28.363Z,29.51
2023-01-17T13:05:08.141Z,29.52
2023-01-17T13:06:47.892Z,29.51
2023-01-17T13:08:27.603Z,29.52
2023-01-17T13:10:07.477Z,29.53
2023-01-17T13:11:47.248Z,29.47
2023-01-17T13:13:27.092Z,29.61
2023-01-17T13:15:06.712Z,29.51
2023-01-17T13:16:46.565Z,29.51
2023-01-17T13:18:26.276Z,29.53
2023-01-17T13:20:06.088Z,29.52
2023-01-17T13:21:45.790Z,29.52
2023-01-17T13:23:25.519Z,29.5
2023-01-17T13:25:05.423Z,29.51
2023-01-17T13:26:45.083Z,29.51
2023-01-17T13:28:24.841Z,29.51
2023-01-17T13:30:04.612Z,29.52
2023-01-17T13:31:44.367Z,29.5
2023-01-17T13:33:24.205Z,29.51
2023-01-17T13:35:03.925Z,29.51
2023-01-17T13:36:43.686Z,29.52
2023-01-17T13:38:23.492Z,29.51
2023-01-17T13:40:03.223Z,29.2
2023-01-17T13:41:43.078Z,29.51
2023-01-17T13:43:22.803Z,29.52
2023-01-17T13:45:02.704Z,29.52
2023-01-17T13:46:42.304Z,29.51
2023-01-17T13:48:22.123Z,29.52
2023-01-17T13:50:01.861Z,29.51
2023-01-17T13:51:41.629Z,29.5
2023-01-17T13:53:21.482Z,29.5
2023-01-17T13:55:01.160Z,29.5
2023-01-17T13:56:40.923Z,28.44
2023-01-17T13:58:20.693Z,28.18
2023-01-17T14:00:00.476Z,28.08
2023-01-17T14:01:40.273Z,27.95
2023-01-17T14:03:20.008Z,27.85
2023-01-17T14:04:59.815Z,27.8
2023-01-17T14:06:39.541Z,27.77
2023-01-17T14:08:19.332Z,27.75
2023-01-17T14:09:59.089Z,27.74
2023-01-17T14:11:38.851Z,27.77
2023-01-17T14:13:18.633Z,27.77
2023-01-17T14:14:58.397Z,27.76
2023-01-17T14:16:38.181Z,27.74
2023-01-17T14:18:17.936Z,27.69
2023-01-17T14:19:57.724Z,27.64
2023-01-17T14:21:37.506Z,27.59
2023-01-17T14:23:17.249Z,27.55
2023-01-17T14:24:57.030Z,27.52
2023-01-17T14:26:36.857Z,27.5
2023-01-17T14:28:16.563Z,27.53
2023-01-17T14:29:56.384Z,27.52
2023-01-17T14:31:36.106Z,27.46
2023-01-17T14:33:15.996Z,27.45
2023-01-17T14:34:55.645Z,27.43
2023-01-17T14:36:35.432Z,27.43
2023-01-17T14:38:15.172Z,27.41
2023-01-17T14:39:54.960Z,27.44
2023-01-17T14:41:34.757Z,27.66
2023-01-17T14:43:14.497Z,27.52
2023-01-17T14:44:54.284Z,27.48
2023-01-17T14:46:34.023Z,27.41
2023-01-17T14:48:13.827Z,27.37
2023-01-17T14:49:53.568Z,27.34
2023-01-17T14:51:33.378Z,27.32
2023-01-17T14:53:13.123Z,27.29
2023-01-17T14:54:52.886Z,27.26
2023-01-17T14:56:32.684Z,27.25
2023-01-17T14:58:12.413Z,27.13
2023-01-17T14:59:52.193Z,27.2
2023-01-17T15:01:32.077Z,27.24
2023-01-17T15:03:11.730Z,27.18
2023-01-17T15:04:51.503Z,27.12
2023-01-17T15:06:31.268Z,27.1
2023-01-17T15:08:11.043Z,27.07
2023-01-17T15:09:50.814Z,27.05
2023-01-17T15:11:30.586Z,27.01
2023-01-17T15:13:10.396Z,27
2023-01-17T15:14:50.114Z,26.97
2023-01-17T15:16:29.901Z,26.95
2023-01-17T15:18:09.656Z,26.93
2023-01-17T15:19:49.461Z,26.9
2023-01-17T15:21:29.211Z,26.87
2023-01-17T15:23:08.967Z,26.83
2023-01-17T15:24:48.754Z,26.83
2023-01-17T15:26:28.513Z,26.8
2023-01-17T15:28:08.264Z,26.77
2023-01-17T15:29:48.044Z,26.75
2023-01-17T15:31:27.831Z,26.72
2023-01-17T15:33:07.580Z,26.7
2023-01-17T15:34:47.340Z,26.67
2023-01-17T15:36:27.116Z,26.66
2023-01-17T15:38:06.866Z,26.64
2023-01-17T15:39:46.646Z,26.62
2023-01-17T15:41:26.420Z,26.59
2023-01-17T15:43:06.219Z,26.58
2023-01-17T15:44:45.959Z,26.56
2023-01-17T15:46:25.711Z,26.52
2023-01-17T15:48:05.484Z,26.46
2023-01-17T15:49:45.242Z,26.5
2023-01-17T15:51:25.001Z,26.5
2023-01-17T15:53:04.780Z,26.49
2023-01-17T15:54:44.548Z,26.48
2023-01-17T15:56:24.322Z,26.47
2023-01-17T15:58:04.074Z,26.46
2023-01-17T15:59:43.850Z,26.45
2023-01-17T16:01:23.606Z,26.43
2023-01-17T16:03:03.372Z,26.43
2023-01-17T16:04:43.166Z,26.42
2023-01-17T16:06:22.930Z,26.42
2023-01-17T16:08:02.689Z,26.41
2023-01-17T16:09:42.448Z,26.4
2023-01-17T16:11:22.224Z,26.39
2023-01-17T16:13:01.995Z,26.23
2023-01-17T16:14:41.761Z,26.37
2023-01-17T16:16:21.648Z,26.37
2023-01-17T16:18:01.282Z,26.36
2023-01-17T16:19:41.050Z,26.35
2023-01-17T16:21:20.844Z,26.35
2023-01-17T16:23:00.594Z,26.34
2023-01-17T16:24:40.367Z,26.33
2023-01-17T16:26:20.120Z,26.33
2023-01-17T16:27:59.897Z,26.33
2023-01-17T16:29:39.648Z,26.32
2023-01-17T16:31:19.426Z,26.32
2023-01-17T16:32:59.210Z,26.31
2023-01-17T16:34:38.973Z,26.3
2023-01-17T16:36:18.740Z,26.3
2023-01-17T16:37:58.503Z,26.17
2023-01-17T16:39:38.253Z,26.29
2023-01-17T16:41:18.028Z,26.29
2023-01-17T16:42:57.796Z,26.28
2023-01-17T16:44:37.555Z,26.28
2023-01-17T16:46:17.328Z,26.27
2023-01-17T16:47:57.106Z,26.27
2023-01-17T16:49:36.869Z,26.26
2023-01-17T16:51:16.640Z,26.26
2023-01-17T16:52:56.408Z,26.25
2023-01-17T16:54:36.178Z,26.25
2023-01-17T16:56:16.038Z,26.25
2023-01-17T16:57:55.698Z,26.25
2023-01-17T16:59:35.480Z,26.24
2023-01-17T17:01:15.243Z,26.23
2023-01-17T17:02:55.015Z,26.14
2023-01-17T17:04:34.772Z,26.23
2023-01-17T17:06:14.532Z,26.23
2023-01-17T17:07:54.300Z,26.23
2023-01-17T17:09:34.071Z,26.22
2023-01-17T17:11:13.849Z,26.22
2023-01-17T17:12:53.596Z,26.22
2023-01-17T17:14:33.379Z,26.22
2023-01-17T17:16:13.143Z,26.21
2023-01-17T17:17:52.924Z,26.21
2023-01-17T17:19:32.681Z,26.2
2023-01-17T17:21:12.493Z,26.2
2023-01-17T17:22:52.284Z,26.2
2023-01-17T17:24:32.051Z,26.2
2023-01-17T17:26:11.852Z,26.19
2023-01-17T17:27:51.519Z,26.19
2023-01-17T17:29:31.285Z,26.19
2023-01-17T17:31:11.043Z,26.19
2023-01-17T17:32:50.842Z,26.19
2023-01-17T17:34:30.574Z,26.19
2023-01-17T17:36:10.340Z,26.18
2023-01-17T17:37:50.098Z,26.18
2023-01-17T17:39:29.880Z,26.18
2023-01-17T17:41:09.643Z,26.18
2023-01-17T17:42:49.428Z,26.17
2023-01-17T17:44:29.189Z,26.17
2023-01-17T17:46:08.940Z,26.17
2023-01-17T17:47:48.713Z,26.17
2023-01-17T17:49:28.493Z,26.17
2023-01-17T17:51:08.278Z,26.15
2023-01-17T17:52:48.024Z,26.16
2023-01-17T17:54:27.785Z,26.16
2023-01-17T17:56:07.561Z,26.15
2023-01-17T17:57:47.328Z,26.16
2023-01-17T17:59:27.086Z,26.16
2023-01-17T18:01:06.865Z,26.15
2023-01-17T18:02:46.601Z,26.15
2023-01-17T18:04:26.386Z,26.15
2023-01-17T18:06:06.158Z,26.15
2023-01-17T18:07:45.924Z,26.15
2023-01-17T18:09:25.716Z,26.14
2023-01-17T18:11:05.457Z,26.14
2023-01-17T18:12:45.245Z,26.14
2023-01-17T18:14:25.004Z,26.14
2023-01-17T18:16:04.776Z,26.13
2023-01-17T18:17:44.525Z,26.14
2023-01-17T18:19:24.292Z,26.14
2023-01-17T18:21:04.072Z,26.14
2023-01-17T18:22:43.829Z,26.13
2023-01-17T18:24:23.611Z,26.13
2023-01-17T18:26:03.372Z,26.13
2023-01-17T18:27:43.131Z,26.13
2023-01-17T18:29:22.954Z,26.13
2023-01-17T18:31:02.659Z,26.12
2023-01-17T18:32:42.441Z,26.12
2023-01-17T18:34:22.203Z,26.12
2023-01-17T18:36:02.018Z,26.12
2023-01-17T18:37:41.732Z,26.12
2023-01-17T18:39:21.502Z,26.11
2023-01-17T18:41:01.385Z,26.1
2023-01-17T18:42:41.103Z,26.12
2023-01-17T18:44:20.800Z,26.12
2023-01-17T18:46:00.567Z,26.11
2023-01-17T18:47:40.378Z,26.12
2023-01-17T18:49:20.144Z,26.11
2023-01-17T18:50:59.885Z,26.11
2023-01-17T18:52:39.679Z,26.11
2023-01-17T18:54:19.432Z,26.11
2023-01-17T18:55:59.167Z,26.1
2023-01-17T18:57:38.962Z,26.1
2023-01-17T18:59:18.715Z,26.1
2023-01-17T19:00:58.479Z,26.1
2023-01-17T19:02:38.233Z,26.1
2023-01-17T19:04:18.004Z,26.09
2023-01-17T19:05:57.776Z,26.07
2023-01-17T19:07:37.547Z,26.09
2023-01-17T19:09:17.312Z,26.09
2023-01-17T19:10:57.084Z,26.09
2023-01-17T19:12:36.852Z,26.09
2023-01-17T19:14:16.601Z,26.09
2023-01-17T19:15:56.375Z,26.09
2023-01-17T19:17:36.181Z,26.09
2023-01-17T19:19:15.968Z,26.08
2023-01-17T19:20:55.699Z,26.09
2023-01-17T19:22:35.444Z,26.08
2023-01-17T19:24:15.227Z,26.08
2023-01-17T19:25:54.972Z,26.08
2023-01-17T19:27:34.750Z,26.08
2023-01-17T19:29:14.544Z,26.08
2023-01-17T19:30:54.285Z,26.03
2023-01-17T19:32:34.109Z,26.08
2023-01-17T19:34:13.824Z,26.08
2023-01-17T19:35:53.593Z,26.07
2023-01-17T19:37:33.364Z,26.07
2023-01-17T19:39:13.115Z,26.07
2023-01-17T19:40:52.887Z,26.07
2023-01-17T19:42:32.659Z,26.07
2023-01-17T19:44:12.636Z,26.07
2023-01-17T19:45:52.203Z,26.07
2023-01-17T19:47:31.963Z,26.07
2023-01-17T19:49:11.784Z,26.06
2023-01-17T19:50:51.503Z,26.06
2023-01-17T19:52:31.274Z,26.06
2023-01-17T19:54:11.079Z,26.06
2023-01-17T19:55:50.794Z,25.95
2023-01-17T19:57:30.628Z,26.06
2023-01-17T19:59:10.366Z,26.06
2023-01-17T20:00:50.100Z,26.06
2023-01-17T20:02:29.856Z,26.05
2023-01-17T20:04:09.624Z,26.05
2023-01-17T20:05:49.404Z,26.05
2023-01-17T20:07:29.164Z,26.05
2023-01-17T20:09:09.065Z,26.05
2023-01-17T20:10:48.689Z,26.05
2023-01-17T20:12:28.502Z,26.05
2023-01-17T20:14:08.284Z,26.05
2023-01-17T20:15:48.004Z,26.05
2023-01-17T20:17:27.774Z,26.04
2023-01-17T20:19:07.539Z,26.04
2023-01-17T20:20:47.336Z,25.92
2023-01-17T20:22:27.152Z,26.05
2023-01-17T20:24:06.880Z,26.04
2023-01-17T20:25:46.598Z,26.04
2023-01-17T20:27:26.381Z,26.04
2023-01-17T20:29:06.156Z,26.04
2023-01-17T20:30:45.902Z,26.04
2023-01-17T20:32:25.693Z,26.04
2023-01-17T20:34:05.494Z,26.04
2023-01-17T20:35:45.198Z,26.03
2023-01-17T20:37:25.033Z,26.03
2023-01-17T20:39:04.783Z,26.03
2023-01-17T20:40:44.541Z,26.03
2023-01-17T20:42:24.284Z,26.03
2023-01-17T20:44:04.115Z,26.02
2023-01-17T20:45:43.815Z,25.96
2023-01-17T20:47:23.584Z,26.03
2023-01-17T20:49:03.419Z,26.03
2023-01-17T20:50:43.088Z,26.02
2023-01-17T20:52:22.882Z,26.02
2023-01-17T20:54:02.639Z,26.02
2023-01-17T20:55:42.409Z,26.02
2023-01-17T20:57:22.183Z,26.02
2023-01-17T20:59:02.000Z,26.02
2023-01-17T21:00:41.813Z,26.02
2023-01-17T21:02:21.515Z,26.01
2023-01-17T21:04:01.270Z,26.02
2023-01-17T21:05:41.013Z,26.01
2023-01-17T21:07:20.785Z,26.01
2023-01-17T21:09:00.590Z,26.01
2023-01-17T21:10:40.317Z,26.01
2023-01-17T21:12:20.087Z,26.01
2023-01-17T21:13:59.853Z,26.01
2023-01-17T21:15:39.618Z,26.01
2023-01-17T21:17:19.379Z,26.01
2023-01-17T21:18:59.208Z,26.01
2023-01-17T21:20:38.912Z,26.01
2023-01-17T21:22:18.725Z,26.01
2023-01-17T21:23:58.458Z,26
2023-01-17T21:25:38.218Z,26.01
2023-01-17T21:27:17.993Z,26
2023-01-17T21:28:57.752Z,26